createdAt,value
2018-07-11T00:01:19.083Z,100.00
2018-07-11T00:03:49.945Z,100.00
2018-07-11T00:06:19.884Z,100.00
2018-07-11T00:08:48.629Z,100.00
2018-07-11T00:11:17.380Z,100.00
2018-07-11T00:13:46.927Z,100.00
2018-07-11T00:16:16.245Z,100.00
2018-07-11T00:18:45.054Z,100.00
2018-07-11T00:21:13.964Z,100.00
2018-07-11T00:23:42.734Z,100.00
2018-07-11T00:26:11.996Z,100.00
2018-07-11T00:28:40.769Z,100.00
2018-07-11T00:31:09.632Z,100.00
2018-07-11T00:33:38.373Z,100.00
2018-07-11T00:36:07.142Z,100.00
2018-07-11T00:38:35.926Z,100.00
2018-07-11T00:41:04.735Z,100.00
2018-07-11T00:43:35.161Z,100.00
2018-07-11T00:46:04.659Z,100.00
2018-07-11T00:48:33.673Z,100.00
2018-07-11T00:51:02.811Z,100.00
2018-07-11T00:53:33.158Z,100.00
2018-07-11T00:56:02.614Z,100.00
2018-07-11T00:58:35.173Z,100.00
2018-07-11T01:01:17.670Z,100.00
2018-07-11T01:03:57.734Z,100.00
2018-07-11T01:06:26.502Z,100.00
2018-07-11T01:08:58.208Z,100.00
2018-07-11T01:11:31.381Z,100.00
2018-07-11T01:14:00.109Z,100.00
2018-07-11T01:16:28.994Z,100.00
2018-07-11T01:19:02.279Z,100.00
2018-07-11T01:21:31.605Z,100.00
2018-07-11T01:24:00.447Z,100.00
2018-07-11T01:26:32.221Z,100.00
2018-07-11T01:29:01.066Z,100.00
2018-07-11T01:31:29.821Z,100.00
2018-07-11T01:33:58.983Z,100.00
2018-07-11T01:36:28.082Z,100.00
2018-07-11T01:38:57.200Z,100.00
2018-07-11T01:41:25.979Z,100.00
2018-07-11T01:43:54.730Z,100.00
2018-07-11T01:46:23.491Z,100.00
2018-07-11T01:48:52.258Z,100.00
2018-07-11T01:51:22.819Z,100.00
2018-07-11T01:53:51.585Z,100.00
2018-07-11T01:56:20.289Z,100.00
2018-07-11T01:58:49.008Z,100.00
2018-07-11T02:01:17.738Z,100.00
2018-07-11T02:03:46.469Z,100.00
2018-07-11T02:06:15.268Z,100.00
2018-07-11T02:08:44.170Z,100.00
2018-07-11T02:11:12.952Z,100.00
2018-07-11T02:13:41.902Z,100.00
2018-07-11T02:16:10.822Z,100.00
2018-07-11T02:18:39.623Z,100.00
2018-07-11T02:21:08.360Z,100.00
2018-07-11T02:23:38.751Z,100.00
2018-07-11T02:26:07.549Z,100.00
2018-07-11T02:28:36.276Z,100.00
2018-07-11T02:31:05.210Z,100.00
2018-07-11T02:33:33.943Z,100.00
2018-07-11T02:36:02.670Z,100.00
2018-07-11T02:38:31.414Z,100.00
2018-07-11T02:41:00.143Z,100.00
2018-07-11T02:43:28.890Z,100.00
2018-07-11T02:45:57.667Z,100.00
2018-07-11T02:48:26.426Z,100.00
2018-07-11T02:50:55.182Z,100.00
2018-07-11T02:53:24.817Z,100.00
2018-07-11T02:55:54.079Z,100.00
2018-07-11T02:58:22.803Z,100.00
2018-07-11T03:00:51.545Z,100.00
2018-07-11T03:03:20.562Z,100.00
2018-07-11T03:05:49.274Z,100.00
2018-07-11T03:08:18.833Z,100.00
2018-07-11T03:10:47.883Z,100.00
2018-07-11T03:13:20.713Z,100.00
2018-07-11T03:15:49.443Z,100.00
2018-07-11T03:18:18.152Z,100.00
2018-07-11T03:20:46.879Z,100.00
2018-07-11T03:23:15.629Z,100.00
2018-07-11T03:25:44.393Z,100.00
2018-07-11T03:28:13.106Z,100.00
2018-07-11T03:30:41.952Z,100.00
2018-07-11T03:33:10.675Z,100.00
2018-07-11T03:35:39.386Z,100.00
2018-07-11T03:38:08.175Z,100.00
2018-07-11T03:40:36.903Z,100.00
2018-07-11T03:43:05.631Z,100.00
2018-07-11T03:45:34.696Z,100.00
2018-07-11T03:48:03.461Z,100.00
2018-07-11T03:50:32.264Z,100.00
2018-07-11T03:53:00.994Z,100.00
2018-07-11T03:55:29.738Z,100.00
2018-07-11T03:57:58.639Z,100.00
2018-07-11T04:00:27.350Z,99.98
2018-07-11T04:02:56.883Z,100.00
2018-07-11T04:05:25.603Z,97.96
2018-07-11T04:07:54.360Z,97.04
2018-07-11T04:10:23.134Z,95.17
2018-07-11T04:12:58.523Z,90.43
2018-07-11T04:15:27.317Z,85.97
2018-07-11T04:17:56.294Z,80.98
2018-07-11T04:20:25.337Z,75.29
2018-07-11T04:22:54.119Z,67.79
2018-07-11T04:25:22.986Z,61.33
2018-07-11T04:27:51.726Z,54.27
2018-07-11T04:30:20.457Z,50.23
2018-07-11T04:32:49.178Z,47.47
2018-07-11T04:35:17.916Z,43.21
2018-07-11T04:37:46.834Z,41.29
2018-07-11T04:40:15.567Z,40.11
2018-07-11T04:42:44.281Z,40.65
2018-07-11T04:45:12.991Z,41.47
2018-07-11T04:47:41.731Z,38.84
2018-07-11T04:50:10.446Z,37.62
2018-07-11T04:52:39.174Z,38.16
2018-07-11T04:55:07.914Z,37.01
2018-07-11T04:57:36.648Z,38.04
2018-07-11T05:00:05.467Z,36.38
2018-07-11T05:02:34.219Z,35.86
2018-07-11T05:05:02.934Z,36.04
2018-07-11T05:07:31.663Z,35.83
2018-07-11T05:10:00.372Z,37.59
2018-07-11T05:12:29.128Z,38.21
2018-07-11T05:14:57.858Z,38.95
2018-07-11T05:17:26.598Z,35.62
2018-07-11T05:19:55.322Z,35.78
2018-07-11T05:22:24.025Z,35.05
2018-07-11T05:24:52.773Z,36.54
2018-07-11T05:27:21.496Z,35.78
2018-07-11T05:29:50.222Z,35.65
2018-07-11T05:32:18.918Z,33.76
2018-07-11T05:34:47.658Z,34.78
2018-07-11T05:37:16.570Z,32.82
2018-07-11T05:39:45.314Z,31.71
2018-07-11T05:42:14.053Z,34.61
2018-07-11T05:47:16.710Z,32.46
2018-07-11T05:49:45.443Z,31.86
2018-07-11T05:52:14.201Z,32.56
2018-07-11T05:54:42.885Z,31.22
2018-07-11T05:57:11.578Z,29.34
2018-07-11T05:59:40.262Z,31.07
2018-07-11T06:02:09.001Z,29.43
2018-07-11T06:04:37.694Z,30.93
2018-07-11T06:07:06.487Z,32.43
2018-07-11T06:09:35.186Z,32.06
2018-07-11T06:12:04.092Z,30.70
2018-07-11T06:14:32.844Z,29.11
2018-07-11T06:17:01.847Z,29.49
2018-07-11T06:19:30.598Z,29.90
2018-07-11T06:21:59.339Z,29.49
2018-07-11T06:24:28.055Z,28.67
2018-07-11T06:26:57.205Z,27.44
2018-07-11T06:29:25.922Z,27.33
2018-07-11T06:31:54.648Z,27.07
2018-07-11T06:34:23.358Z,26.24
2018-07-11T06:36:52.282Z,27.39
2018-07-11T06:39:21.101Z,29.56
2018-07-11T06:41:49.974Z,32.41
2018-07-11T06:44:18.702Z,33.43
2018-07-11T06:46:47.462Z,35.80
2018-07-11T06:49:16.191Z,37.65
2018-07-11T06:51:44.979Z,38.68
2018-07-11T06:54:13.727Z,39.88
2018-07-11T06:56:42.652Z,41.92
2018-07-11T06:59:11.418Z,42.07
2018-07-11T07:01:40.133Z,45.34
2018-07-11T07:04:08.882Z,47.68
2018-07-11T07:06:37.610Z,46.46
2018-07-11T07:09:07.129Z,45.66
2018-07-11T07:11:35.949Z,43.88
2018-07-11T07:14:04.689Z,41.35
2018-07-11T07:16:33.486Z,38.88
2018-07-11T07:19:02.191Z,37.26
2018-07-11T07:21:30.917Z,36.46
2018-07-11T07:23:59.678Z,33.49
2018-07-11T07:26:28.393Z,35.70
2018-07-11T07:28:57.134Z,37.93
2018-07-11T07:31:25.892Z,38.22
2018-07-11T07:33:54.609Z,36.16
2018-07-11T07:36:23.318Z,31.85
2018-07-11T07:38:52.038Z,32.71
2018-07-11T07:41:20.777Z,35.89
2018-07-11T07:43:49.550Z,36.55
2018-07-11T07:46:18.342Z,37.92
2018-07-11T07:48:47.179Z,35.60
2018-07-11T07:51:15.966Z,32.89
2018-07-11T07:53:44.707Z,30.32
2018-07-11T07:56:13.467Z,30.83
2018-07-11T07:58:42.297Z,30.26
2018-07-11T08:01:11.023Z,27.99
2018-07-11T08:03:39.801Z,27.33
2018-07-11T08:06:08.536Z,30.70
2018-07-11T08:08:37.294Z,34.51
2018-07-11T08:11:06.095Z,35.50
2018-07-11T08:13:34.842Z,38.91
2018-07-11T08:16:03.602Z,38.63
2018-07-11T08:18:32.339Z,42.54
2018-07-11T08:21:01.078Z,43.54
2018-07-11T08:25:42.374Z,41.21
2018-07-11T08:28:32.131Z,35.69
2018-07-11T08:31:11.815Z,37.31
2018-07-11T08:34:11.295Z,34.24
2018-07-11T08:38:56.105Z,33.77
2018-07-11T08:41:38.578Z,31.29
2018-07-11T08:44:18.724Z,33.13
2018-07-11T08:46:58.234Z,31.74
2018-07-11T08:50:01.533Z,31.49
2018-07-11T08:53:16.361Z,30.20
2018-07-11T08:58:03.766Z,31.23
2018-07-11T09:01:44.639Z,32.40
2018-07-11T09:04:42.256Z,32.26
2018-07-11T09:07:25.038Z,34.21
2018-07-11T09:11:07.159Z,29.11
2018-07-11T09:14:00.712Z,30.18
2018-07-11T09:16:41.939Z,30.48
2018-07-11T09:19:28.443Z,29.51
2018-07-11T09:22:11.067Z,29.34
2018-07-11T09:24:45.234Z,28.67
2018-07-11T09:27:14.303Z,29.21
2018-07-11T09:29:43.948Z,29.61
2018-07-11T09:32:13.431Z,30.89
2018-07-11T09:34:42.699Z,31.21
2018-07-11T09:37:11.477Z,31.46
2018-07-11T09:39:40.814Z,32.05
2018-07-11T09:42:09.537Z,33.00
2018-07-11T09:44:39.281Z,30.77
2018-07-11T09:47:13.065Z,29.51
2018-07-11T09:49:41.804Z,32.59
2018-07-11T09:52:10.570Z,36.53
2018-07-11T09:54:39.287Z,34.06
2018-07-11T09:57:08.015Z,33.19
2018-07-11T09:59:36.789Z,32.27
2018-07-11T10:02:05.552Z,33.34
2018-07-11T10:04:34.517Z,29.86
2018-07-11T10:07:04.445Z,28.50
2018-07-11T10:09:33.180Z,27.68
2018-07-11T10:12:01.912Z,30.85
2018-07-11T10:14:30.791Z,32.07
2018-07-11T10:16:59.568Z,31.13
2018-07-11T10:19:28.278Z,29.67
2018-07-11T10:21:57.010Z,29.79
2018-07-11T10:24:25.730Z,30.82
2018-07-11T10:26:54.470Z,30.47
2018-07-11T10:29:23.257Z,27.29
2018-07-11T10:31:51.981Z,27.87
2018-07-11T10:34:20.708Z,30.24
2018-07-11T10:36:49.575Z,29.88
2018-07-11T10:39:18.286Z,30.44
2018-07-11T10:41:47.176Z,30.41
2018-07-11T10:44:15.878Z,36.63
2018-07-11T10:46:44.622Z,38.06
2018-07-11T10:49:13.566Z,34.67
2018-07-11T10:51:42.293Z,32.79
2018-07-11T10:54:11.046Z,31.89
2018-07-11T10:56:39.745Z,31.41
2018-07-11T10:59:08.452Z,32.51
2018-07-11T11:01:37.183Z,31.65
2018-07-11T11:04:05.890Z,33.60
2018-07-11T11:06:34.654Z,35.43
2018-07-11T11:09:03.671Z,34.63
2018-07-11T11:11:32.394Z,36.00
2018-07-11T11:14:01.138Z,31.29
2018-07-11T11:16:29.878Z,30.43
2018-07-11T11:18:58.575Z,30.31
2018-07-11T11:21:27.318Z,32.20
2018-07-11T11:23:56.066Z,30.53
2018-07-11T11:26:24.862Z,32.59
2018-07-11T11:28:53.662Z,33.49
2018-07-11T11:31:22.351Z,30.72
2018-07-11T11:33:51.149Z,33.62
2018-07-11T11:36:19.845Z,34.70
2018-07-11T11:38:48.669Z,33.11
2018-07-11T11:41:17.405Z,35.04
2018-07-11T11:43:46.172Z,30.72
2018-07-11T11:46:14.938Z,30.13
2018-07-11T11:48:43.848Z,33.77
2018-07-11T11:51:12.537Z,32.77
2018-07-11T11:53:41.217Z,32.80
2018-07-11T11:56:09.925Z,32.81
2018-07-11T11:58:38.691Z,34.03
2018-07-11T12:01:07.397Z,38.04
2018-07-11T12:03:36.256Z,36.27
2018-07-11T12:06:04.957Z,37.37
2018-07-11T12:08:33.653Z,37.29
2018-07-11T12:11:02.390Z,36.56
2018-07-11T12:13:31.242Z,33.30
2018-07-11T12:16:00.029Z,35.28
2018-07-11T12:18:28.794Z,36.52
2018-07-11T12:20:59.077Z,35.58
2018-07-11T12:23:27.825Z,36.19
2018-07-11T12:26:06.725Z,36.31
2018-07-11T12:28:35.673Z,36.53
2018-07-11T12:31:05.069Z,31.80
2018-07-11T12:33:34.201Z,33.85
2018-07-11T12:36:03.138Z,37.09
2018-07-11T12:38:31.870Z,36.65
2018-07-11T12:41:00.609Z,39.38
2018-07-11T12:43:29.341Z,39.94
2018-07-11T12:45:58.542Z,40.31
2018-07-11T12:48:32.374Z,40.24
2018-07-11T12:51:01.085Z,41.47
2018-07-11T12:53:30.166Z,43.82
2018-07-11T12:55:59.323Z,43.00
2018-07-11T12:58:28.379Z,45.49
2018-07-11T13:00:57.207Z,44.81
2018-07-11T13:03:26.414Z,46.59
2018-07-11T13:05:55.263Z,46.00
2018-07-11T13:08:23.997Z,47.91
2018-07-11T13:10:52.721Z,48.40
2018-07-11T13:13:21.780Z,47.80
2018-07-11T13:15:50.509Z,46.83
2018-07-11T13:18:19.378Z,46.20
2018-07-11T13:20:48.117Z,48.33
2018-07-11T13:23:16.813Z,47.23
2018-07-11T13:25:45.546Z,46.06
2018-07-11T13:28:14.245Z,45.21
2018-07-11T13:30:43.126Z,45.76
2018-07-11T13:33:11.810Z,46.59
2018-07-11T13:35:40.513Z,48.88
2018-07-11T13:38:12.008Z,47.95
2018-07-11T13:40:40.709Z,47.96
2018-07-11T13:43:10.118Z,47.43
2018-07-11T13:45:38.873Z,45.57
2018-07-11T13:48:08.541Z,44.98
2018-07-11T13:50:37.271Z,49.11
2018-07-11T13:53:05.981Z,49.28
2018-07-11T13:55:34.705Z,50.68
2018-07-11T13:58:03.629Z,49.42
2018-07-11T14:00:33.477Z,48.57
2018-07-11T14:03:02.706Z,46.16
2018-07-11T14:05:31.725Z,46.98
2018-07-11T14:08:00.432Z,48.40
2018-07-11T14:10:29.170Z,48.78
2018-07-11T14:12:57.927Z,49.78
2018-07-11T14:15:26.666Z,49.64
2018-07-11T14:17:55.414Z,48.26
2018-07-11T14:20:24.178Z,49.69
2018-07-11T14:22:52.987Z,48.97
2018-07-11T14:25:22.098Z,50.31
2018-07-11T14:27:51.565Z,48.92
2018-07-11T14:30:24.669Z,49.52
2018-07-11T14:32:56.564Z,49.92
2018-07-11T14:35:25.358Z,49.60
2018-07-11T14:37:54.101Z,50.67
2018-07-11T14:40:23.002Z,50.47
2018-07-11T14:42:51.696Z,48.46
2018-07-11T14:45:20.537Z,49.74
2018-07-11T14:47:54.305Z,51.95
2018-07-11T14:50:23.038Z,50.94
2018-07-11T14:52:52.136Z,50.71
2018-07-11T14:55:21.124Z,49.60
2018-07-11T14:57:50.553Z,50.00
2018-07-11T15:00:19.253Z,52.03
2018-07-11T15:02:47.970Z,50.59
2018-07-11T15:05:16.684Z,50.17
2018-07-11T15:07:45.469Z,51.42
2018-07-11T15:10:14.360Z,49.17
2018-07-11T15:12:43.194Z,50.15
2018-07-11T15:15:11.885Z,50.82
2018-07-11T15:17:40.585Z,50.70
2018-07-11T15:20:09.366Z,51.78
2018-07-11T15:22:38.113Z,50.95
2018-07-11T15:25:06.826Z,51.52
2018-07-11T15:27:35.545Z,51.22
2018-07-11T15:30:04.260Z,52.10
2018-07-11T15:32:33.462Z,50.88
2018-07-11T15:35:02.179Z,51.26
2018-07-11T15:37:30.970Z,51.46
2018-07-11T15:39:59.934Z,51.45
2018-07-11T15:42:28.657Z,51.21
2018-07-11T15:44:57.430Z,52.41
2018-07-11T15:47:26.445Z,53.39
2018-07-11T15:49:55.174Z,50.97
2018-07-11T15:52:25.645Z,52.06
2018-07-11T15:54:57.988Z,53.31
2018-07-11T15:57:33.243Z,52.48
2018-07-11T16:00:04.638Z,52.14
2018-07-11T16:02:34.461Z,52.10
2018-07-11T16:05:03.426Z,52.54
2018-07-11T16:07:35.942Z,54.11
2018-07-11T16:10:04.797Z,52.76
2018-07-11T16:12:33.518Z,52.75
2018-07-11T16:15:02.225Z,53.20
2018-07-11T16:17:30.939Z,54.15
2018-07-11T16:19:59.675Z,54.55
2018-07-11T16:22:28.431Z,54.03
2018-07-11T16:24:57.173Z,55.58
2018-07-11T16:27:25.881Z,55.41
2018-07-11T16:29:54.621Z,57.20
2018-07-11T16:32:23.308Z,55.04
2018-07-11T16:34:51.997Z,56.70
2018-07-11T16:37:20.810Z,56.08
2018-07-11T16:39:49.510Z,55.61
2018-07-11T16:42:19.632Z,57.57
2018-07-11T16:44:49.021Z,55.88
2018-07-11T16:47:17.733Z,54.91
2018-07-11T16:49:46.613Z,56.28
2018-07-11T16:52:15.333Z,56.84
2018-07-11T16:54:44.516Z,58.03
2018-07-11T16:57:16.411Z,57.72
2018-07-11T16:59:50.921Z,59.51
2018-07-11T17:02:23.578Z,60.44
2018-07-11T17:04:54.369Z,60.64
2018-07-11T17:07:25.041Z,61.55
2018-07-11T17:09:56.429Z,63.93
2018-07-11T17:12:25.761Z,63.67
2018-07-11T17:14:58.672Z,65.01
2018-07-11T17:17:32.858Z,66.08
2018-07-11T17:20:07.110Z,67.99
2018-07-11T17:22:50.431Z,69.13
2018-07-11T17:25:21.040Z,72.04
2018-07-11T17:27:58.056Z,72.63
2018-07-11T17:30:29.323Z,73.83
2018-07-11T17:32:58.097Z,74.69
2018-07-11T17:35:26.845Z,73.32
2018-07-11T17:37:56.159Z,75.41
2018-07-11T17:40:25.762Z,77.32
2018-07-11T17:42:55.012Z,78.43
2018-07-11T17:45:24.015Z,80.05
2018-07-11T17:48:20.595Z,80.39
2018-07-11T17:50:50.320Z,80.08
2018-07-11T17:53:20.964Z,80.94
2018-07-11T17:56:12.290Z,82.26
2018-07-11T17:58:57.193Z,83.15
2018-07-11T18:01:38.850Z,84.86
2018-07-11T18:04:52.221Z,86.13
2018-07-11T18:07:29.933Z,87.00
2018-07-11T18:10:05.662Z,87.21
2018-07-11T18:12:51.163Z,88.12
2018-07-11T18:15:42.469Z,87.45
2018-07-11T18:18:24.890Z,89.34
2018-07-11T18:21:05.081Z,91.08
2018-07-11T18:24:17.035Z,91.70
2018-07-11T18:28:54.509Z,91.00
2018-07-11T18:31:34.327Z,90.91
2018-07-11T18:34:21.524Z,92.04
2018-07-11T18:37:01.605Z,92.06
2018-07-11T18:39:59.797Z,93.30
2018-07-11T18:42:43.761Z,93.62
2018-07-11T18:45:31.746Z,94.65
2018-07-11T18:48:15.268Z,94.74
2018-07-11T18:51:26.456Z,95.20
2018-07-11T18:54:07.974Z,94.29
2018-07-11T18:56:43.677Z,95.88
2018-07-11T18:59:55.180Z,95.11
2018-07-11T19:03:10.459Z,94.99
2018-07-11T19:05:56.602Z,96.16
2018-07-11T19:08:36.477Z,95.77
2018-07-11T19:11:13.155Z,95.72
2018-07-11T19:13:45.553Z,95.25
2018-07-11T19:16:19.550Z,96.64
2018-07-11T19:19:27.317Z,96.95
2018-07-11T19:22:18.633Z,97.09
2018-07-11T19:27:05.316Z,97.33
2018-07-11T19:29:52.362Z,96.56
2018-07-11T19:33:34.233Z,96.83
2018-07-11T19:38:21.773Z,98.02
2018-07-11T19:40:57.813Z,99.10
2018-07-11T19:45:41.564Z,99.27
2018-07-11T19:48:26.413Z,100.00
2018-07-11T19:53:27.733Z,100.00
2018-07-11T19:56:10.021Z,100.00
2018-07-11T19:58:38.760Z,100.00
2018-07-11T20:01:07.457Z,100.00
2018-07-11T20:03:36.197Z,100.00
2018-07-11T20:06:04.918Z,100.00
2018-07-11T20:08:33.647Z,99.95
2018-07-11T20:11:02.668Z,99.58
2018-07-11T20:13:31.393Z,100.00
2018-07-11T20:16:00.214Z,99.51
2018-07-11T20:18:28.949Z,99.24
2018-07-11T20:20:57.688Z,98.50
2018-07-11T20:23:26.420Z,97.99
2018-07-11T20:25:55.169Z,97.29
2018-07-11T20:28:23.893Z,99.21
2018-07-11T20:30:52.694Z,100.00
2018-07-11T20:33:21.433Z,99.64
2018-07-11T20:35:50.149Z,98.72
2018-07-11T20:38:19.113Z,99.80
2018-07-11T20:40:48.209Z,98.78
2018-07-11T20:43:17.098Z,99.22
2018-07-11T20:45:45.985Z,99.45
2018-07-11T20:48:14.722Z,99.48
2018-07-11T20:50:43.433Z,99.90
2018-07-11T20:53:12.134Z,100.00
2018-07-11T20:55:40.822Z,100.00
2018-07-11T20:58:20.540Z,100.00
2018-07-11T21:01:00.406Z,100.00
2018-07-11T21:07:46.427Z,100.00
2018-07-11T21:10:36.440Z,100.00
2018-07-11T21:13:31.118Z,100.00
2018-07-11T21:16:10.170Z,100.00
2018-07-11T21:19:00.346Z,100.00
2018-07-11T21:21:29.125Z,100.00
2018-07-11T21:23:57.830Z,100.00
2018-07-11T21:26:26.534Z,100.00
2018-07-11T21:28:55.275Z,100.00
2018-07-11T21:31:24.474Z,100.00
2018-07-11T21:33:53.637Z,100.00
2018-07-11T21:36:22.829Z,100.00
2018-07-11T21:38:52.333Z,100.00
2018-07-11T21:41:21.425Z,100.00
2018-07-11T21:43:50.773Z,100.00
2018-07-11T21:46:20.093Z,99.69
2018-07-11T21:48:49.349Z,99.78
2018-07-11T21:51:18.431Z,100.00
2018-07-11T21:53:47.723Z,99.81
2018-07-11T21:56:16.797Z,100.00
2018-07-11T21:58:45.582Z,100.00
2018-07-11T22:01:14.294Z,99.61
2018-07-11T22:03:42.994Z,99.02
2018-07-11T22:06:11.794Z,99.17
2018-07-11T22:08:40.557Z,99.64
2018-07-11T22:11:09.474Z,99.67
2018-07-11T22:13:38.201Z,100.00
2018-07-11T22:16:06.921Z,99.81
2018-07-11T22:18:38.282Z,100.00
2018-07-11T22:21:06.760Z,99.18
2018-07-11T22:23:34.175Z,99.32
2018-07-11T22:26:01.843Z,98.77
2018-07-11T22:28:29.275Z,99.18
2018-07-11T22:30:56.693Z,100.00
2018-07-11T22:33:24.248Z,100.00
2018-07-11T22:35:51.641Z,99.16
2018-07-11T22:38:19.054Z,99.30
2018-07-11T22:40:46.893Z,100.00
2018-07-11T22:43:14.338Z,100.00
2018-07-11T22:45:41.741Z,100.00
2018-07-11T22:48:09.140Z,100.00
2018-07-11T22:50:36.541Z,99.24
2018-07-11T22:53:03.947Z,99.65
2018-07-11T22:55:31.407Z,100.00
2018-07-11T22:57:58.819Z,99.95
2018-07-11T23:00:26.266Z,100.00
2018-07-11T23:02:53.675Z,100.00
2018-07-11T23:05:21.094Z,100.00
2018-07-11T23:07:48.489Z,99.86
2018-07-11T23:10:15.901Z,99.55
2018-07-11T23:12:43.331Z,100.00
2018-07-11T23:15:10.745Z,100.00
2018-07-11T23:17:38.141Z,100.00
2018-07-11T23:20:05.571Z,100.00
2018-07-11T23:22:33.008Z,100.00
2018-07-11T23:25:00.397Z,100.00
2018-07-11T23:27:27.803Z,99.81
2018-07-11T23:29:55.211Z,100.00
2018-07-11T23:32:22.617Z,99.81
2018-07-11T23:34:50.009Z,100.00
2018-07-11T23:37:17.405Z,100.00
2018-07-11T23:39:44.800Z,100.00
2018-07-11T23:42:12.198Z,100.00
2018-07-11T23:44:39.594Z,100.00
2018-07-11T23:47:07.003Z,100.00
2018-07-11T23:49:34.440Z,100.00
2018-07-11T23:52:01.841Z,100.00
2018-07-11T23:54:29.246Z,100.00
2018-07-11T23:56:56.649Z,100.00
2018-07-11T23:59:24.046Z,100.00
